Time;durP1;ratioP1;P1;durP2;ratioP2;P2;SDS_P1;SDS_P2;PMS_P1;PMS_P2;Temp;Humidity;BMP_temperature;BMP_pressure;BME280_temperature;BME280_humidity;BME280_pressure;Samples;Min_cycle;Max_cycle;Signal;HPM_P1;HPM_P2
2021/09/28 00:00:28;;;;;;;1.53;1.03;;;13.10;98.20;;;;;;5032691;28;20863;-77
2021/09/28 00:02:55;;;;;;;1.53;1.10;;;13.10;98.20;;;;;;5036350;28;20466;-78
2021/09/28 00:05:24;;;;;;;2.13;1.83;;;13.10;98.20;;;;;;5029229;28;21070;-77
2021/09/28 00:07:51;;;;;;;1.53;1.00;;;13.10;98.20;;;;;;5029779;28;20547;-77
2021/09/28 00:10:18;;;;;;;1.50;1.03;;;13.00;98.20;;;;;;5037173;28;20470;-78
2021/09/28 00:12:44;;;;;;;1.50;1.00;;;13.00;98.20;;;;;;5028774;28;20475;-77
2021/09/28 00:15:14;;;;;;;1.53;1.10;;;13.00;98.20;;;;;;5034682;28;21003;-78
2021/09/28 00:17:40;;;;;;;1.57;1.10;;;13.00;98.20;;;;;;5031294;28;20486;-78
2021/09/28 00:20:09;;;;;;;1.57;1.03;;;13.00;98.20;;;;;;5034802;28;20482;-77
2021/09/28 00:22:38;;;;;;;1.53;1.00;;;13.00;98.20;;;;;;5031656;28;20467;-77
2021/09/28 00:25:06;;;;;;;1.53;1.00;;;12.90;98.20;;;;;;5038167;28;20463;-78
2021/09/28 00:27:33;;;;;;;1.57;1.10;;;12.90;98.20;;;;;;5047787;28;20838;-77
2021/09/28 00:30:00;;;;;;;1.57;1.10;;;12.90;98.20;;;;;;5033070;28;20474;-78
2021/09/28 00:32:27;;;;;;;1.60;1.10;;;12.90;98.20;;;;;;5035415;28;20463;-78
2021/09/28 00:34:54;;;;;;;1.60;1.20;;;12.90;98.20;;;;;;5042092;28;20479;-77
2021/09/28 00:37:21;;;;;;;1.50;1.10;;;12.90;98.20;;;;;;5034621;28;20502;-77
2021/09/28 00:39:49;;;;;;;1.57;1.10;;;12.90;98.20;;;;;;5031562;28;20468;-78
2021/09/28 00:42:16;;;;;;;1.53;1.00;;;12.90;98.20;;;;;;5041906;28;20463;-77
2021/09/28 00:44:44;;;;;;;1.50;1.07;;;12.90;98.20;;;;;;5041630;28;20738;-77
2021/09/28 00:47:13;;;;;;;1.53;1.10;;;12.90;98.20;;;;;;5030260;28;20547;-78
2021/09/28 00:49:41;;;;;;;1.57;1.00;;;12.90;98.20;;;;;;5035081;28;20459;-78
2021/09/28 00:52:08;;;;;;;1.57;1.10;;;12.90;98.20;;;;;;5043609;28;20465;-77
2021/09/28 00:54:37;;;;;;;1.50;1.10;;;12.90;98.20;;;;;;5033976;28;20782;-77
2021/09/28 00:57:06;;;;;;;1.53;1.00;;;12.80;98.20;;;;;;5027930;28;20487;-79
2021/09/28 00:59:35;;;;;;;1.50;1.10;;;12.80;98.20;;;;;;5038972;28;20500;-78
2021/09/28 01:02:02;;;;;;;1.53;1.10;;;12.80;98.20;;;;;;5033514;28;20517;-77
2021/09/28 01:04:29;;;;;;;1.53;1.10;;;12.80;98.20;;;;;;5024509;28;20451;-77
2021/09/28 01:06:58;;;;;;;1.60;1.20;;;12.80;98.20;;;;;;5039657;28;20565;-77
2021/09/28 01:09:25;;;;;;;1.50;1.00;;;12.80;98.20;;;;;;5027417;28;20458;-77
2021/09/28 01:11:52;;;;;;;1.50;1.00;;;12.80;98.20;;;;;;5035397;28;20506;-78
2021/09/28 01:14:20;;;;;;;1.57;1.10;;;12.80;98.20;;;;;;5034215;28;20486;-77
2021/09/28 01:16:47;;;;;;;1.57;1.10;;;12.80;98.20;;;;;;5035160;28;20490;-78
2021/09/28 01:19:14;;;;;;;1.60;1.10;;;12.80;98.20;;;;;;5034576;28;20645;-77
2021/09/28 01:21:42;;;;;;;1.57;1.10;;;12.80;98.20;;;;;;5034626;28;20664;-77
2021/09/28 01:24:09;;;;;;;1.60;1.10;;;12.80;98.20;;;;;;5019156;28;20457;-78
2021/09/28 01:26:37;;;;;;;1.50;1.10;;;12.80;98.20;;;;;;5029228;28;20824;-77
2021/09/28 01:29:07;;;;;;;1.60;1.10;;;12.70;98.20;;;;;;5030354;28;20837;-77
2021/09/28 01:31:34;;;;;;;1.60;1.10;;;12.70;98.20;;;;;;5013923;28;20466;-77
2021/09/28 01:34:01;;;;;;;1.53;1.10;;;12.70;98.20;;;;;;5021637;28;20465;-77
2021/09/28 01:36:28;;;;;;;1.60;1.20;;;12.70;98.20;;;;;;5025348;28;20488;-77
2021/09/28 01:38:57;;;;;;;1.50;1.10;;;12.70;98.20;;;;;;5032151;28;20470;-78
2021/09/28 01:41:23;;;;;;;1.53;1.10;;;12.60;98.20;;;;;;5035218;28;20466;-78
2021/09/28 01:43:50;;;;;;;1.57;1.10;;;12.60;98.20;;;;;;5029219;28;20467;-77
2021/09/28 01:46:17;;;;;;;1.53;1.10;;;12.60;98.20;;;;;;5029583;28;20487;-78
2021/09/28 01:48:49;;;;;;;1.53;1.10;;;12.60;98.20;;;;;;5028539;28;20471;-77
2021/09/28 01:51:16;;;;;;;1.53;1.00;;;12.60;98.20;;;;;;5031422;28;20466;-78
2021/09/28 01:53:43;;;;;;;1.50;1.10;;;12.60;98.20;;;;;;5028951;28;20843;-77
2021/09/28 01:56:19;;;;;;;1.53;1.10;;;12.60;98.20;;;;;;5027212;28;20495;-77
2021/09/28 01:58:46;;;;;;;1.53;1.10;;;12.60;98.20;;;;;;5027267;28;20473;-77
2021/09/28 02:01:13;;;;;;;1.53;1.10;;;12.60;98.20;;;;;;5029296;28;20851;-77
2021/09/28 02:03:40;;;;;;;1.57;1.10;;;12.60;98.20;;;;;;5034793;28;20663;-77
2021/09/28 02:06:07;;;;;;;1.50;1.00;;;12.60;98.20;;;;;;5035465;28;20482;-77
2021/09/28 02:08:34;;;;;;;1.57;1.10;;;12.60;98.20;;;;;;5032603;28;20461;-77
2021/09/28 02:11:00;;;;;;;1.53;1.10;;;12.60;98.20;;;;;;5028480;28;20473;-77
2021/09/28 02:13:28;;;;;;;1.57;1.10;;;12.60;98.20;;;;;;5033609;28;20474;-78
2021/09/28 02:15:55;;;;;;;1.53;1.10;;;12.60;98.20;;;;;;5027479;28;20483;-77
2021/09/28 02:18:22;;;;;;;1.53;1.00;;;12.60;98.20;;;;;;5027826;28;20810;-77
2021/09/28 02:20:49;;;;;;;1.50;1.03;;;12.60;98.20;;;;;;5035655;28;20471;-77
2021/09/28 02:23:16;;;;;;;1.53;1.10;;;12.60;98.20;;;;;;5031585;28;20468;-77
2021/09/28 02:25:42;;;;;;;1.50;1.03;;;12.70;98.20;;;;;;5032492;28;20462;-77
2021/09/28 02:28:09;;;;;;;1.50;1.00;;;12.60;98.20;;;;;;5024651;28;20475;-77
2021/09/28 02:30:38;;;;;;;1.57;1.10;;;12.70;98.20;;;;;;5037554;28;20459;-76
2021/09/28 02:33:05;;;;;;;1.50;1.03;;;12.70;98.20;;;;;;5030953;28;20475;-77
2021/09/28 02:35:32;;;;;;;1.50;1.10;;;12.70;98.20;;;;;;5027316;28;20486;-77
2021/09/28 02:37:59;;;;;;;1.50;1.00;;;12.70;98.20;;;;;;5032597;28;20489;-77
2021/09/28 02:40:26;;;;;;;1.60;1.20;;;12.60;98.20;;;;;;5037292;28;20459;-77
2021/09/28 02:42:53;;;;;;;1.60;1.10;;;12.60;98.20;;;;;;5031196;28;20497;-77
2021/09/28 02:45:20;;;;;;;1.57;1.00;;;12.60;98.20;;;;;;5029910;28;20705;-77
2021/09/28 02:47:49;;;;;;;1.53;1.00;;;12.60;98.20;;;;;;5034458;28;20494;-77
2021/09/28 02:50:16;;;;;;;1.53;1.00;;;12.60;98.20;;;;;;5036162;28;20455;-77
2021/09/28 02:52:43;;;;;;;1.50;1.10;;;12.60;98.20;;;;;;5033323;28;20479;-77
2021/09/28 02:55:10;;;;;;;1.53;1.10;;;12.60;98.20;;;;;;5032471;28;20490;-77
2021/09/28 02:57:37;;;;;;;1.53;1.10;;;12.60;98.20;;;;;;5032443;28;20491;-77
2021/09/28 03:00:05;;;;;;;1.57;1.10;;;12.60;98.20;;;;;;5040854;28;20482;-77
2021/09/28 03:02:32;;;;;;;1.60;1.20;;;12.50;98.20;;;;;;5034611;28;20463;-78
2021/09/28 03:05:00;;;;;;;1.60;1.20;;;12.50;98.20;;;;;;5030878;28;20845;-76
2021/09/28 03:07:27;;;;;;;1.57;1.10;;;12.50;98.20;;;;;;5033589;28;20486;-79
2021/09/28 03:09:55;;;;;;;1.57;1.10;;;12.50;98.20;;;;;;5041716;28;20466;-79
2021/09/28 03:12:22;;;;;;;1.53;1.10;;;12.50;98.20;;;;;;5033280;28;20864;-79
2021/09/28 03:14:48;;;;;;;1.53;1.10;;;12.50;98.20;;;;;;5040874;28;20454;-78
2021/09/28 03:17:15;;;;;;;1.53;1.10;;;12.50;98.20;;;;;;5040020;28;20812;-79
2021/09/28 03:19:42;;;;;;;1.57;1.10;;;12.50;98.20;;;;;;5038074;28;20490;-79
2021/09/28 03:22:10;;;;;;;1.53;1.10;;;12.50;98.20;;;;;;5037006;28;20911;-77
2021/09/28 03:24:37;;;;;;;1.53;1.10;;;12.50;98.20;;;;;;5040850;28;21286;-78
2021/09/28 03:27:04;;;;;;;1.60;1.10;;;12.50;98.20;;;;;;5038191;28;20491;-79
2021/09/28 03:29:31;;;;;;;1.50;1.00;;;12.50;98.20;;;;;;5034433;28;20800;-78
2021/09/28 03:31:58;;;;;;;1.50;1.00;;;12.50;98.20;;;;;;5030849;28;20471;-79
2021/09/28 03:34:24;;;;;;;1.50;1.10;;;12.50;98.20;;;;;;5030804;28;20550;-78
2021/09/28 03:36:51;;;;;;;1.53;1.00;;;12.50;98.20;;;;;;5029372;28;22069;-79
2021/09/28 03:39:19;;;;;;;1.60;1.20;;;12.40;98.20;;;;;;5034117;28;20471;-76
2021/09/28 03:41:46;;;;;;;1.50;1.00;;;12.40;98.20;;;;;;5037354;28;20546;-79
2021/09/28 03:44:13;;;;;;;1.60;1.20;;;12.40;98.20;;;;;;5044331;28;20458;-78
2021/09/28 03:46:40;;;;;;;1.57;1.10;;;12.40;98.20;;;;;;5032105;28;20482;-79
2021/09/28 03:49:06;;;;;;;1.53;1.00;;;12.30;98.20;;;;;;5025188;28;20471;-78
2021/09/28 03:51:33;;;;;;;1.50;1.10;;;12.30;98.20;;;;;;5035664;28;20478;-77
2021/09/28 03:54:00;;;;;;;1.57;1.10;;;12.30;98.20;;;;;;5031864;28;20462;-77
2021/09/28 03:56:28;;;;;;;1.60;1.20;;;12.30;98.20;;;;;;5029888;28;20482;-77
2021/09/28 03:58:55;;;;;;;1.53;1.10;;;12.30;98.20;;;;;;5030833;28;20466;-77
2021/09/28 04:01:21;;;;;;;1.53;1.10;;;12.30;98.20;;;;;;5031586;28;20463;-77
2021/09/28 04:03:48;;;;;;;1.50;1.10;;;12.30;98.20;;;;;;5036536;28;20841;-77
2021/09/28 04:06:15;;;;;;;1.53;1.10;;;12.20;98.20;;;;;;5033056;28;20493;-77
2021/09/28 04:08:42;;;;;;;1.57;1.10;;;12.20;98.20;;;;;;5035293;28;20469;-78
2021/09/28 04:11:09;;;;;;;1.60;1.10;;;12.20;98.20;;;;;;5032692;28;20479;-77
2021/09/28 04:13:37;;;;;;;1.53;1.20;;;12.20;98.20;;;;;;5027328;28;20838;-76
2021/09/28 04:16:06;;;;;;;1.53;1.10;;;12.20;98.20;;;;;;5024210;28;20900;-79
2021/09/28 04:18:33;;;;;;;1.57;1.10;;;12.20;98.20;;;;;;5041480;28;20459;-79
2021/09/28 04:21:00;;;;;;;1.60;1.17;;;12.20;98.20;;;;;;5028268;28;20479;-79
2021/09/28 04:23:27;;;;;;;1.60;1.10;;;12.10;98.20;;;;;;5017891;28;20468;-77
2021/09/28 04:25:54;;;;;;;1.50;1.10;;;12.00;98.20;;;;;;5032826;28;20836;-79
2021/09/28 04:28:20;;;;;;;1.50;1.10;;;12.00;98.20;;;;;;5033172;28;20554;-79
2021/09/28 04:30:49;;;;;;;1.57;1.10;;;12.00;98.20;;;;;;5033565;28;20836;-79
2021/09/28 04:33:15;;;;;;;1.57;1.00;;;12.00;98.20;;;;;;5034291;28;20477;-79
2021/09/28 04:35:42;;;;;;;1.50;1.10;;;12.00;98.20;;;;;;5038309;28;21067;-77
2021/09/28 04:38:09;;;;;;;1.57;1.20;;;11.90;98.20;;;;;;5032594;28;20542;-79
2021/09/28 04:40:36;;;;;;;1.60;1.10;;;11.90;98.20;;;;;;5030782;28;20459;-79
2021/09/28 04:43:03;;;;;;;1.57;1.10;;;11.90;98.20;;;;;;5029423;28;20463;-79
2021/09/28 04:45:30;;;;;;;1.57;1.10;;;11.90;98.20;;;;;;5033025;28;20966;-79
2021/09/28 04:47:59;;;;;;;1.60;1.10;;;11.90;98.20;;;;;;5031816;28;20483;-77
2021/09/28 04:50:26;;;;;;;1.53;1.10;;;11.90;98.20;;;;;;5030018;28;20483;-77
2021/09/28 04:52:53;;;;;;;1.60;1.20;;;11.80;98.20;;;;;;5029162;28;20460;-77
2021/09/28 04:55:20;;;;;;;1.57;1.20;;;11.80;98.20;;;;;;5037160;28;20491;-79
2021/09/28 04:57:46;;;;;;;1.57;1.13;;;11.80;98.20;;;;;;5039022;28;20479;-78
2021/09/28 05:00:14;;;;;;;1.53;1.10;;;11.80;98.20;;;;;;5036249;28;20462;-79
2021/09/28 05:02:41;;;;;;;1.60;1.20;;;11.70;98.20;;;;;;5035150;28;20467;-78
2021/09/28 05:05:10;;;;;;;1.60;1.13;;;11.70;98.20;;;;;;5035646;28;20491;-80
2021/09/28 05:07:37;;;;;;;1.53;1.10;;;11.70;98.20;;;;;;5045213;28;20487;-78
2021/09/28 05:10:04;;;;;;;1.60;1.13;;;11.70;98.20;;;;;;5038603;28;20467;-78
2021/09/28 05:12:31;;;;;;;1.57;1.13;;;11.70;98.20;;;;;;5032274;28;20463;-79
2021/09/28 05:14:58;;;;;;;1.53;1.20;;;11.70;98.20;;;;;;5028942;28;20455;-78
2021/09/28 05:17:25;;;;;;;1.53;1.10;;;11.70;98.20;;;;;;5029510;28;20490;-80
2021/09/28 05:19:52;;;;;;;1.53;1.10;;;11.60;98.20;;;;;;5031769;28;20502;-78
2021/09/28 05:22:20;;;;;;;1.60;1.10;;;11.60;98.20;;;;;;5030517;28;20468;-79
2021/09/28 05:24:47;;;;;;;1.57;1.10;;;11.60;98.20;;;;;;5033522;28;20471;-78
2021/09/28 05:27:15;;;;;;;1.57;1.10;;;11.60;98.20;;;;;;5038735;28;20475;-76
2021/09/28 05:29:41;;;;;;;1.60;1.20;;;11.60;98.20;;;;;;5030742;28;20521;-78
2021/09/28 05:32:09;;;;;;;1.53;1.10;;;11.60;98.20;;;;;;5033410;28;20470;-79
2021/09/28 05:34:36;;;;;;;1.53;1.10;;;11.60;98.20;;;;;;5033007;28;20467;-78
2021/09/28 05:37:04;;;;;;;1.57;1.10;;;11.60;98.20;;;;;;5031415;28;20491;-77
2021/09/28 05:39:33;;;;;;;1.53;1.20;;;11.60;98.20;;;;;;5036315;28;20458;-78
2021/09/28 05:42:00;;;;;;;1.53;1.10;;;11.60;98.20;;;;;;5032988;28;20939;-79
2021/09/28 05:44:27;;;;;;;1.60;1.30;;;11.50;98.20;;;;;;5040239;28;20470;-77
2021/09/28 05:46:54;;;;;;;1.57;1.10;;;11.60;98.20;;;;;;5037051;28;20899;-79
2021/09/28 05:49:42;;;;;;;1.50;1.10;;;11.60;98.20;;;;;;5028198;28;20926;-78
2021/09/28 05:55:10;;;;;;;1.53;1.10;;;11.60;98.20;;;;;;4998574;28;20466;-78
2021/09/28 05:57:38;;;;;;;1.57;1.10;;;11.60;98.20;;;;;;5030501;28;20554;-77
2021/09/28 06:00:06;;;;;;;1.53;1.10;;;11.60;98.20;;;;;;5035224;28;20474;-80
2021/09/28 06:02:33;;;;;;;1.57;1.07;;;11.60;98.20;;;;;;5033096;28;20463;-79
2021/09/28 06:05:00;;;;;;;1.50;1.10;;;11.60;98.20;;;;;;5034579;28;20469;-77
2021/09/28 06:07:27;;;;;;;1.60;1.10;;;11.60;98.20;;;;;;5037420;28;20497;-79
2021/09/28 06:09:54;;;;;;;1.53;1.10;;;11.70;98.20;;;;;;5037085;28;20954;-78
2021/09/28 06:12:23;;;;;;;1.53;1.10;;;11.70;98.20;;;;;;5033283;28;20491;-79
2021/09/28 06:14:50;;;;;;;1.60;1.20;;;11.70;98.20;;;;;;5029607;28;20938;-77
2021/09/28 06:17:17;;;;;;;1.60;1.27;;;11.80;98.20;;;;;;5033734;28;20661;-78
2021/09/28 06:19:44;;;;;;;1.57;1.10;;;11.90;98.20;;;;;;5031309;28;20534;-78
2021/09/28 06:22:11;;;;;;;1.60;1.20;;;12.00;98.20;;;;;;5035469;28;20460;-77
2021/09/28 06:24:38;;;;;;;1.53;1.10;;;12.10;98.20;;;;;;5037484;28;20470;-77
2021/09/28 06:27:09;;;;;;;1.53;1.00;;;12.20;98.20;;;;;;5025670;28;20471;-79
2021/09/28 06:29:37;;;;;;;1.60;1.13;;;12.30;98.20;;;;;;5031223;28;20929;-78
2021/09/28 06:32:05;;;;;;;1.60;1.17;;;12.40;98.20;;;;;;5025921;28;20550;-80
2021/09/28 06:34:32;;;;;;;1.57;1.10;;;12.50;98.20;;;;;;5024439;28;20467;-79
2021/09/28 06:36:59;;;;;;;1.57;1.10;;;12.60;98.20;;;;;;5032482;28;20967;-77
2021/09/28 06:39:26;;;;;;;1.60;1.10;;;12.80;98.20;;;;;;5028039;28;20474;-78
2021/09/28 06:41:53;;;;;;;1.50;1.00;;;12.90;98.20;;;;;;5029097;28;20521;-78
2021/09/28 06:44:20;;;;;;;1.57;1.00;;;13.00;98.20;;;;;;5027543;28;20481;-78
2021/09/28 06:46:48;;;;;;;1.53;1.00;;;13.10;98.20;;;;;;5033032;28;20514;-79
2021/09/28 06:49:15;;;;;;;1.53;1.10;;;13.30;98.20;;;;;;5026962;28;20491;-80
2021/09/28 06:51:42;;;;;;;1.60;1.10;;;13.40;98.20;;;;;;5022184;28;20467;-79
2021/09/28 06:54:09;;;;;;;1.53;1.00;;;13.50;98.20;;;;;;5031043;28;20970;-77
2021/09/28 06:56:37;;;;;;;1.60;1.10;;;13.70;98.20;;;;;;5026288;28;20494;-79
2021/09/28 06:59:07;;;;;;;1.50;1.10;;;13.90;98.20;;;;;;5027382;28;20962;-80
2021/09/28 07:01:35;;;;;;;1.50;1.00;;;14.00;98.20;;;;;;5031200;28;20463;-78
2021/09/28 07:04:04;;;;;;;1.60;1.10;;;14.20;98.20;;;;;;5037400;28;20456;-78
2021/09/28 07:06:31;;;;;;;1.60;1.10;;;14.30;98.20;;;;;;5026457;28;20478;-78
2021/09/28 07:08:59;;;;;;;1.57;1.00;;;14.50;98.20;;;;;;5026693;28;20482;-78
2021/09/28 07:11:26;;;;;;;1.60;1.10;;;14.60;98.20;;;;;;5033537;28;20495;-81
2021/09/28 07:13:53;;;;;;;1.57;1.10;;;14.70;98.20;;;;;;5035327;28;20490;-82
2021/09/28 07:16:20;;;;;;;1.57;1.00;;;14.80;98.20;;;;;;5027490;28;20527;-81
2021/09/28 07:18:47;;;;;;;1.50;1.00;;;14.90;98.20;;;;;;5026769;28;20473;-79
2021/09/28 07:21:16;;;;;;;1.60;1.07;;;15.00;98.20;;;;;;5030256;28;20556;-79
2021/09/28 07:23:43;;;;;;;1.60;1.10;;;15.10;98.20;;;;;;5031844;28;20459;-81
2021/09/28 07:26:10;;;;;;;1.57;1.03;;;15.30;98.20;;;;;;5031709;28;20483;-79
2021/09/28 07:28:37;;;;;;;1.53;1.00;;;15.30;98.20;;;;;;5026694;28;20478;-82
2021/09/28 07:31:04;;;;;;;1.53;1.00;;;15.40;98.20;;;;;;5029648;28;20463;-79
2021/09/28 07:33:31;;;;;;;1.60;1.10;;;15.50;98.20;;;;;;5038516;28;20501;-78
2021/09/28 07:35:58;;;;;;;1.60;1.10;;;15.50;98.20;;;;;;5034835;28;21056;-81
2021/09/28 07:38:26;;;;;;;1.60;0.97;;;15.60;98.20;;;;;;5034363;28;20458;-81
2021/09/28 07:40:54;;;;;;;1.57;0.97;;;15.60;98.20;;;;;;5031275;28;20467;-82
2021/09/28 07:43:21;;;;;;;1.53;1.00;;;15.60;98.20;;;;;;5030667;28;20471;-77
2021/09/28 07:45:48;;;;;;;1.57;1.00;;;15.70;98.20;;;;;;5033187;28;20543;-80
2021/09/28 07:48:15;;;;;;;1.50;0.90;;;15.70;98.20;;;;;;5033602;28;20466;-78
2021/09/28 07:50:42;;;;;;;1.53;1.00;;;15.80;98.20;;;;;;5037032;28;20459;-79
2021/09/28 07:53:09;;;;;;;1.57;1.10;;;15.90;98.20;;;;;;5031282;28;20475;-78
2021/09/28 07:55:38;;;;;;;1.57;0.90;;;16.00;98.20;;;;;;5029876;28;20463;-76
2021/09/28 07:58:05;;;;;;;1.53;1.00;;;16.10;98.20;;;;;;5032592;28;20537;-78
2021/09/28 08:00:32;;;;;;;1.60;1.10;;;16.20;98.20;;;;;;5031907;28;20969;-81
2021/09/28 08:02:59;;;;;;;1.60;1.00;;;16.30;98.20;;;;;;5029767;28;20627;-78
2021/09/28 08:05:26;;;;;;;1.57;1.00;;;16.40;98.20;;;;;;5033412;28;21042;-77
2021/09/28 08:07:53;;;;;;;1.50;1.00;;;16.50;98.20;;;;;;5027783;28;20522;-79
2021/09/28 08:10:20;;;;;;;1.90;1.40;;;16.60;98.20;;;;;;5034905;28;20462;-78
2021/09/28 08:12:48;;;;;;;1.53;1.00;;;16.70;98.20;;;;;;5036994;28;20480;-79
2021/09/28 08:15:15;;;;;;;1.53;1.00;;;16.70;98.20;;;;;;5026530;28;20459;-77
2021/09/28 08:17:42;;;;;;;1.60;1.00;;;16.70;98.20;;;;;;5030133;28;20785;-79
2021/09/28 08:20:11;;;;;;;1.57;1.00;;;16.70;98.20;;;;;;5027656;28;20483;-76
2021/09/28 08:22:39;;;;;;;1.53;1.00;;;16.80;98.20;;;;;;5032496;28;20464;-79
2021/09/28 08:25:10;;;;;;;1.50;0.97;;;16.90;98.20;;;;;;5031992;28;20843;-78
2021/09/28 08:31:02;;;;;;;1.50;0.93;;;17.10;98.20;;;;;;5025148;28;20469;-77
2021/09/28 08:33:29;;;;;;;1.53;1.00;;;17.20;98.20;;;;;;5036583;28;21008;-76
2021/09/28 08:35:56;;;;;;;1.53;1.00;;;17.20;98.20;;;;;;5034731;28;20533;-79
2021/09/28 08:38:23;;;;;;;1.60;1.00;;;17.30;98.20;;;;;;5035541;28;20498;-77
2021/09/28 08:40:53;;;;;;;1.57;1.00;;;17.40;98.20;;;;;;5028774;28;20463;-78
2021/09/28 08:43:20;;;;;;;1.57;0.90;;;17.40;98.20;;;;;;5026985;28;20473;-78
2021/09/28 08:45:48;;;;;;;1.57;0.90;;;17.40;98.20;;;;;;5027581;28;20467;-78
2021/09/28 08:48:18;;;;;;;1.57;1.00;;;17.50;98.20;;;;;;5031719;28;20505;-76
2021/09/28 08:50:46;;;;;;;1.60;1.00;;;17.60;98.20;;;;;;5036904;28;20485;-80
2021/09/28 08:53:14;;;;;;;1.57;1.00;;;17.60;98.20;;;;;;5027425;28;20577;-78
2021/09/28 08:55:41;;;;;;;1.50;0.90;;;17.70;98.20;;;;;;5035963;28;20467;-77
2021/09/28 08:58:16;;;;;;;1.50;0.90;;;17.70;98.20;;;;;;5027160;28;20487;-78
2021/09/28 09:00:45;;;;;;;1.50;0.90;;;17.80;98.20;;;;;;5024744;28;20554;-77
2021/09/28 09:03:29;;;;;;;1.53;1.00;;;17.90;98.20;;;;;;5031592;28;20468;-77
2021/09/28 09:05:58;;;;;;;1.50;0.90;;;17.90;98.20;;;;;;5026562;28;20469;-77
2021/09/28 09:08:26;;;;;;;1.53;0.97;;;18.00;98.20;;;;;;5025814;28;21002;-77
2021/09/28 09:11:00;;;;;;;1.53;1.00;;;18.00;98.20;;;;;;5030951;28;20463;-78
2021/09/28 09:13:35;;;;;;;1.57;1.03;;;18.00;98.10;;;;;;5020662;28;20699;-78
2021/09/28 09:16:02;;;;;;;1.50;0.90;;;18.10;97.30;;;;;;5025634;28;20486;-78
2021/09/28 09:18:32;;;;;;;1.50;0.90;;;18.10;95.90;;;;;;5026232;28;20918;-78
2021/09/28 09:21:00;;;;;;;1.50;0.90;;;18.10;97.20;;;;;;5029882;28;20898;-79
2021/09/28 09:23:31;;;;;;;1.50;0.90;;;18.20;97.50;;;;;;5028231;28;20463;-77
2021/09/28 09:26:06;;;;;;;1.50;1.00;;;18.20;97.60;;;;;;5026471;28;20471;-77
2021/09/28 09:28:35;;;;;;;1.50;0.90;;;18.30;97.60;;;;;;5024215;28;20459;-77
2021/09/28 09:31:29;;;;;;;1.60;1.00;;;18.20;98.20;;;;;;5028972;28;20472;-77
2021/09/28 09:34:07;;;;;;;1.57;1.00;;;18.20;97.40;;;;;;5025582;28;20468;-77
2021/09/28 09:36:35;;;;;;;1.50;0.90;;;18.10;98.20;;;;;;5024285;28;20487;-78
2021/09/28 09:39:04;;;;;;;1.50;0.90;;;18.20;98.20;;;;;;5029935;28;20549;-78
2021/09/28 09:41:34;;;;;;;1.53;0.90;;;18.10;98.20;;;;;;5033399;28;20451;-78
2021/09/28 09:44:06;;;;;;;1.50;0.90;;;18.10;97.80;;;;;;5025949;28;20527;-76
2021/09/28 09:46:43;;;;;;;1.50;0.90;;;18.20;97.40;;;;;;5035550;28;20933;-77
2021/09/28 09:49:13;;;;;;;1.50;0.90;;;18.20;98.20;;;;;;5029585;28;20479;-77
2021/09/28 09:51:42;;;;;;;1.50;0.90;;;18.30;98.20;;;;;;5034430;28;20860;-78
2021/09/28 09:54:09;;;;;;;1.50;0.90;;;18.40;97.10;;;;;;5030989;28;20470;-79
2021/09/28 09:56:47;;;;;;;1.50;1.00;;;18.50;96.80;;;;;;5034106;28;20545;-79
2021/09/28 09:59:16;;;;;;;1.53;0.97;;;18.60;96.80;;;;;;5030999;28;20470;-79
2021/09/28 10:01:43;;;;;;;1.57;0.97;;;18.70;95.60;;;;;;5032068;28;20505;-78
2021/09/28 10:04:13;;;;;;;1.50;0.90;;;18.70;95.50;;;;;;5028711;28;20494;-76
2021/09/28 10:06:41;;;;;;;1.50;0.90;;;18.70;94.70;;;;;;5032844;28;20563;-80
2021/09/28 10:09:12;;;;;;;1.53;0.90;;;18.60;95.00;;;;;;5025079;28;20503;-77
2021/09/28 10:11:40;;;;;;;1.50;1.00;;;18.70;95.20;;;;;;5032781;28;20459;-76
2021/09/28 10:14:07;;;;;;;1.50;0.90;;;18.70;95.30;;;;;;5029800;28;20467;-76
2021/09/28 10:16:40;;;;;;;1.50;0.90;;;18.80;95.50;;;;;;5027138;28;20526;-77
2021/09/28 10:19:42;;;;;;;1.50;0.90;;;18.80;95.40;;;;;;5035013;28;21150;-76
2021/09/28 10:22:53;;;;;;;1.60;1.00;;;18.90;95.50;;;;;;4961393;28;20458;-78
2021/09/28 10:25:37;;;;;;;1.50;0.90;;;19.00;93.50;;;;;;4956746;28;20981;-78
2021/09/28 10:28:29;;;;;;;1.50;0.90;;;19.10;94.30;;;;;;5011875;28;20525;-79
2021/09/28 10:30:56;;;;;;;1.53;0.90;;;19.20;94.40;;;;;;5026904;28;20463;-79
2021/09/28 10:33:34;;;;;;;1.53;0.90;;;19.30;94.50;;;;;;5028766;28;20463;-79
2021/09/28 10:36:07;;;;;;;1.50;0.90;;;19.40;93.80;;;;;;5022966;28;20477;-79
2021/09/28 10:38:59;;;;;;;1.50;0.90;;;19.50;93.40;;;;;;5024623;28;20968;-77
2021/09/28 10:41:52;;;;;;;1.50;0.90;;;19.60;93.30;;;;;;5024929;28;20466;-80
2021/09/28 10:44:48;;;;;;;1.50;0.90;;;19.60;92.30;;;;;;5019283;28;20503;-76
2021/09/28 10:47:46;;;;;;;1.50;0.90;;;19.60;92.70;;;;;;5030118;28;20479;-76
2021/09/28 10:50:29;;;;;;;1.50;0.90;;;19.70;92.70;;;;;;5029557;28;20868;-76
2021/09/28 10:52:59;;;;;;;1.50;1.00;;;19.80;92.80;;;;;;5032163;28;20506;-75
2021/09/28 10:55:32;;;;;;;1.50;0.90;;;19.80;91.70;;;;;;5030657;28;20489;-75
2021/09/28 10:58:11;;;;;;;1.50;0.90;;;19.80;91.40;;;;;;5025931;28;20502;-75
2021/09/28 11:01:12;;;;;;;1.50;0.90;;;19.80;92.50;;;;;;5029989;28;21028;-77
2021/09/28 11:03:59;;;;;;;1.50;0.90;;;19.90;91.00;;;;;;5023941;28;20462;-76
2021/09/28 11:06:59;;;;;;;1.50;0.90;;;19.80;91.60;;;;;;5031654;28;20521;-76
2021/09/28 11:09:47;;;;;;;1.50;1.00;;;19.90;91.20;;;;;;5032816;28;20467;-76
2021/09/28 11:12:15;;;;;;;1.53;1.00;;;20.10;89.80;;;;;;5039054;28;20459;-76
2021/09/28 11:14:42;;;;;;;1.50;0.90;;;20.00;89.50;;;;;;5035115;28;21057;-77
2021/09/28 11:17:18;;;;;;;1.50;0.90;;;20.10;90.70;;;;;;5031321;28;20486;-76
2021/09/28 11:19:46;;;;;;;1.60;1.00;;;20.20;90.70;;;;;;5028715;28;20502;-76
2021/09/28 11:22:22;;;;;;;2.03;1.73;;;20.40;90.40;;;;;;5031528;28;20470;-78
2021/09/28 11:24:51;;;;;;;1.50;0.90;;;20.60;89.40;;;;;;5034859;28;20480;-77
2021/09/28 11:27:18;;;;;;;1.50;0.90;;;20.70;89.00;;;;;;5032611;28;20479;-79
2021/09/28 11:29:45;;;;;;;1.50;0.90;;;20.80;87.20;;;;;;5029084;28;20456;-77
2021/09/28 11:32:12;;;;;;;1.50;0.90;;;20.80;88.30;;;;;;5028915;28;20490;-80
2021/09/28 11:34:43;;;;;;;1.50;0.90;;;20.80;88.40;;;;;;5022091;28;20505;-77
2021/09/28 11:37:10;;;;;;;1.50;0.90;;;20.90;88.50;;;;;;5027663;28;20586;-77
2021/09/28 11:39:43;;;;;;;1.50;0.90;;;21.00;87.60;;;;;;5023518;28;20463;-79
2021/09/28 11:42:12;;;;;;;1.50;0.90;;;20.80;86.90;;;;;;5024553;28;20498;-79
2021/09/28 11:44:46;;;;;;;1.50;0.90;;;20.80;87.80;;;;;;5022976;28;20963;-78
2021/09/28 11:47:14;;;;;;;1.53;0.90;;;20.90;87.30;;;;;;5025255;28;20516;-77
2021/09/28 11:49:50;;;;;;;1.50;0.90;;;20.90;87.90;;;;;;5023180;28;20474;-78
2021/09/28 11:52:18;;;;;;;1.50;0.90;;;20.80;87.90;;;;;;5028921;28;20467;-78
2021/09/28 11:54:46;;;;;;;1.50;1.00;;;20.90;87.00;;;;;;5026079;28;20471;-79
2021/09/28 11:57:16;;;;;;;1.50;1.00;;;20.90;86.40;;;;;;5030667;28;20487;-78
2021/09/28 11:59:44;;;;;;;1.50;0.90;;;21.00;86.10;;;;;;5026884;28;20551;-78
2021/09/28 12:02:13;;;;;;;1.50;0.90;;;21.00;86.10;;;;;;5030867;28;20955;-78
2021/09/28 12:08:00;;;;;;;1.50;0.90;;;21.10;86.20;;;;;;5027352;28;20519;-79
2021/09/28 12:10:36;;;;;;;1.50;0.90;;;21.10;85.00;;;;;;5035372;28;20465;-77
2021/09/28 12:13:20;;;;;;;1.50;0.97;;;21.10;83.80;;;;;;5039005;28;20611;-79
2021/09/28 12:16:15;;;;;;;1.50;0.90;;;21.10;86.20;;;;;;5022269;28;20478;-77
2021/09/28 12:18:43;;;;;;;1.50;0.90;;;21.10;87.10;;;;;;4994024;28;20499;-77
2021/09/28 12:21:22;;;;;;;1.50;0.90;;;21.10;86.30;;;;;;5029672;28;20886;-76
2021/09/28 12:24:11;;;;;;;1.50;0.90;;;21.00;86.50;;;;;;5032236;28;21017;-76
2021/09/28 12:26:38;;;;;;;1.50;0.90;;;21.00;86.60;;;;;;5032785;28;20490;-78
2021/09/28 12:29:15;;;;;;;1.50;0.90;;;21.10;85.30;;;;;;5027059;28;20473;-79
2021/09/28 12:31:42;;;;;;;1.50;0.90;;;21.00;85.30;;;;;;5026073;28;20468;-79
2021/09/28 12:34:10;;;;;;;1.50;0.90;;;21.10;85.20;;;;;;5028155;28;20494;-78
2021/09/28 12:36:38;;;;;;;1.50;0.90;;;21.10;84.90;;;;;;5039893;28;20497;-76
2021/09/28 12:39:26;;;;;;;1.50;0.90;;;21.20;85.40;;;;;;5036239;28;20566;-76
2021/09/28 12:42:05;;;;;;;1.50;0.90;;;21.30;85.50;;;;;;5022826;28;20475;-79
2021/09/28 12:44:34;;;;;;;1.50;0.90;;;21.30;84.90;;;;;;5020372;28;20924;-79
2021/09/28 12:47:25;;;;;;;1.50;0.90;;;21.30;85.30;;;;;;5026178;28;20495;-78
2021/09/28 12:49:53;;;;;;;1.50;0.90;;;21.40;84.20;;;;;;5024548;28;20537;-78
2021/09/28 12:52:20;;;;;;;1.50;0.90;;;21.40;84.30;;;;;;5023515;28;20886;-77
2021/09/28 12:54:47;;;;;;;1.50;0.90;;;21.50;84.40;;;;;;5025900;28;20474;-79
2021/09/28 12:57:14;;;;;;;1.50;0.90;;;21.50;83.70;;;;;;5024880;28;20494;-77
2021/09/28 12:59:43;;;;;;;1.50;0.90;;;21.60;84.60;;;;;;5026683;28;20502;-77
2021/09/28 13:02:10;;;;;;;1.50;0.90;;;21.70;83.50;;;;;;5026652;28;20601;-77
2021/09/28 13:04:37;;;;;;;1.50;0.90;;;21.70;83.70;;;;;;5031656;28;20754;-77
2021/09/28 13:07:07;;;;;;;1.50;0.90;;;21.70;83.60;;;;;;5036419;28;20976;-77
2021/09/28 13:09:34;;;;;;;1.50;0.90;;;21.60;83.60;;;;;;5029927;28;20464;-76